createdAt,value
2022-10-07T00:01:02.749Z,10.50
2022-10-07T00:03:34.238Z,10.75
2022-10-07T00:06:07.770Z,12.10
2022-10-07T00:08:37.108Z,10.90
2022-10-07T00:11:33.599Z,12.63
2022-10-07T00:16:32.682Z,21.73
2022-10-07T00:19:02.797Z,25.27
2022-10-07T00:21:33.296Z,24.48
2022-10-07T00:24:01.008Z,31.67
2022-10-07T00:26:30.983Z,35.25
2022-10-07T00:28:59.270Z,39.20
2022-10-07T00:31:29.363Z,41.90
2022-10-07T00:33:57.653Z,47.08
2022-10-07T00:36:29.053Z,29.35
2022-10-07T00:39:01.187Z,31.63
2022-10-07T00:41:55.754Z,37.28
2022-10-07T00:44:31.766Z,44.85
2022-10-07T00:47:05.205Z,47.33
2022-10-07T00:49:40.912Z,49.92
2022-10-07T00:52:08.892Z,49.15
2022-10-07T00:54:37.114Z,58.97
2022-10-07T00:57:04.915Z,60.60
2022-10-07T00:59:33.715Z,61.58
2022-10-07T01:02:01.149Z,63.08
2022-10-07T01:04:28.613Z,70.60
2022-10-07T01:06:57.186Z,67.13
2022-10-07T01:09:24.606Z,62.10
2022-10-07T01:12:31.962Z,63.13
2022-10-07T01:15:25.040Z,54.45
2022-10-07T01:17:55.265Z,49.45
2022-10-07T01:20:45.672Z,53.95
2022-10-07T01:23:32.728Z,57.22
2022-10-07T01:26:15.099Z,61.42
2022-10-07T01:28:55.558Z,61.90
2022-10-07T01:31:30.449Z,59.83
2022-10-07T01:33:59.693Z,55.38
2022-10-07T01:36:27.467Z,58.35
2022-10-07T01:39:03.619Z,54.35
2022-10-07T01:41:32.466Z,52.17
2022-10-07T01:44:01.362Z,54.13
2022-10-07T01:46:28.982Z,47.90
2022-10-07T01:48:58.988Z,49.55
2022-10-07T01:51:30.123Z,53.72
2022-10-07T01:54:18.553Z,50.78
2022-10-07T01:56:59.998Z,70.28
2022-10-07T01:59:42.809Z,64.47
2022-10-07T02:02:34.911Z,63.65
2022-10-07T02:05:27.419Z,60.53
2022-10-07T02:08:17.927Z,59.85
2022-10-07T02:11:10.752Z,64.03
2022-10-07T02:13:56.429Z,50.10
2022-10-07T02:16:41.164Z,46.92
2022-10-07T02:19:16.744Z,43.88
2022-10-07T02:24:16.089Z,39.10
2022-10-07T02:26:45.996Z,36.65
2022-10-07T02:29:20.045Z,40.40
2022-10-07T02:31:50.836Z,37.47
2022-10-07T02:34:21.899Z,37.72
2022-10-07T02:36:56.145Z,35.22
2022-10-07T02:39:23.389Z,34.83
2022-10-07T02:42:05.124Z,38.00
2022-10-07T02:44:51.125Z,37.30
2022-10-07T02:47:36.086Z,35.42
2022-10-07T02:50:11.080Z,36.95
2022-10-07T02:52:41.469Z,34.73
2022-10-07T02:55:14.770Z,35.70
2022-10-07T02:57:48.388Z,37.35
2022-10-07T03:00:17.863Z,37.42
2022-10-07T03:02:59.259Z,37.47
2022-10-07T03:05:35.178Z,37.15
2022-10-07T03:08:09.489Z,36.60
2022-10-07T03:10:38.170Z,37.05
2022-10-07T03:13:07.150Z,35.47
2022-10-07T03:15:42.138Z,35.55
2022-10-07T03:18:26.885Z,38.08
2022-10-07T03:21:02.339Z,36.60
2022-10-07T03:23:30.678Z,37.45
2022-10-07T03:25:59.665Z,33.53
2022-10-07T03:28:29.424Z,31.67
2022-10-07T03:31:05.528Z,32.00
2022-10-07T03:33:34.306Z,28.48
2022-10-07T03:36:01.954Z,25.77
2022-10-07T03:38:29.239Z,24.98
2022-10-07T03:40:56.686Z,25.13
2022-10-07T03:43:25.349Z,24.98
2022-10-07T03:45:52.693Z,22.92
2022-10-07T03:48:20.369Z,24.33
2022-10-07T03:50:56.645Z,24.60
2022-10-07T03:53:31.276Z,24.33
2022-10-07T03:56:01.205Z,25.30
2022-10-07T03:58:30.369Z,26.73
2022-10-07T04:01:06.464Z,26.83
2022-10-07T04:03:33.964Z,26.23
2022-10-07T04:06:03.920Z,26.27
2022-10-07T04:08:34.387Z,27.10
2022-10-07T04:11:04.001Z,25.58
2022-10-07T04:13:32.320Z,25.52
2022-10-07T04:16:09.738Z,24.92
2022-10-07T04:21:05.739Z,21.15
2022-10-07T04:23:35.889Z,20.50
2022-10-07T04:26:09.499Z,21.08
2022-10-07T04:28:39.142Z,21.30
2022-10-07T04:31:11.608Z,21.67
2022-10-07T04:33:46.548Z,19.73
2022-10-07T04:36:19.069Z,19.92
2022-10-07T04:39:00.339Z,19.65
2022-10-07T04:41:31.635Z,18.50
2022-10-07T04:43:58.992Z,18.85
2022-10-07T04:46:30.711Z,17.85
2022-10-07T04:49:03.999Z,18.67
2022-10-07T04:51:31.923Z,17.90
2022-10-07T04:54:00.727Z,19.33
2022-10-07T04:56:37.815Z,21.20
2022-10-07T04:59:07.830Z,20.02
2022-10-07T05:01:37.200Z,18.17
2022-10-07T05:04:04.631Z,17.42
2022-10-07T05:06:33.689Z,17.90
2022-10-07T05:09:01.165Z,17.85
2022-10-07T05:11:31.399Z,17.58
2022-10-07T05:14:05.802Z,15.90
2022-10-07T05:16:33.705Z,16.67
2022-10-07T05:19:00.999Z,15.27
2022-10-07T05:21:28.384Z,18.50
2022-10-07T05:23:55.848Z,26.70
2022-10-07T05:26:29.644Z,24.45
2022-10-07T05:29:00.059Z,23.38
2022-10-07T05:31:35.489Z,24.08
2022-10-07T05:34:04.784Z,26.95
2022-10-07T05:36:31.928Z,22.73
2022-10-07T05:39:01.031Z,26.45
2022-10-07T05:41:45.715Z,25.45
2022-10-07T05:44:17.240Z,24.42
2022-10-07T05:46:44.888Z,32.75
2022-10-07T05:49:13.600Z,29.15
2022-10-07T05:51:41.890Z,33.35
2022-10-07T05:54:09.750Z,33.53
2022-10-07T05:56:41.167Z,32.88
2022-10-07T05:59:10.639Z,31.42
2022-10-07T06:01:41.810Z,29.05
2022-10-07T06:04:14.562Z,31.77
2022-10-07T06:06:45.059Z,33.63
2022-10-07T06:09:32.498Z,22.30
2022-10-07T06:12:22.479Z,22.08
2022-10-07T06:14:52.225Z,20.10
2022-10-07T06:17:19.419Z,14.63
2022-10-07T06:19:48.729Z,13.43
2022-10-07T06:22:19.548Z,13.48
2022-10-07T06:24:52.249Z,13.63
2022-10-07T06:27:20.063Z,12.23
2022-10-07T06:29:47.461Z,12.25
2022-10-07T06:32:14.719Z,12.50
2022-10-07T06:34:42.695Z,12.80
2022-10-07T06:37:10.128Z,12.48
2022-10-07T06:39:37.659Z,13.18
2022-10-07T06:42:04.983Z,20.70
2022-10-07T06:44:43.649Z,19.27
2022-10-07T06:47:14.931Z,20.30
2022-10-07T06:49:44.572Z,20.00
2022-10-07T06:52:12.509Z,16.25
2022-10-07T06:54:41.393Z,15.70
2022-10-07T06:57:33.132Z,15.75
2022-10-07T06:59:56.835Z,17.63
2022-10-07T07:02:25.957Z,15.70
2022-10-07T07:04:57.744Z,17.25
2022-10-07T07:07:26.767Z,16.00
2022-10-07T07:09:54.564Z,17.40
2022-10-07T07:12:25.538Z,16.92
2022-10-07T07:14:55.589Z,13.45
2022-10-07T07:17:22.943Z,13.23
2022-10-07T07:19:50.614Z,11.35
2022-10-07T07:22:18.857Z,11.38
2022-10-07T07:24:46.964Z,10.45
2022-10-07T07:27:15.395Z,12.23
2022-10-07T07:29:44.245Z,12.13
2022-10-07T07:32:12.725Z,10.93
2022-10-07T07:34:43.801Z,10.32
2022-10-07T07:37:17.784Z,10.00
2022-10-07T07:39:49.388Z,11.00
2022-10-07T07:42:19.090Z,11.25
2022-10-07T07:44:48.481Z,10.98
2022-10-07T07:47:17.489Z,14.10
2022-10-07T07:49:46.435Z,15.38
2022-10-07T07:52:20.690Z,37.67
2022-10-07T07:54:49.246Z,45.28
2022-10-07T07:57:16.488Z,19.38
2022-10-07T07:59:44.163Z,16.90
2022-10-07T08:02:14.603Z,11.38
2022-10-07T08:04:45.654Z,14.95
2022-10-07T08:07:13.150Z,9.55
2022-10-07T08:09:43.164Z,10.18
2022-10-07T08:12:11.599Z,9.70
2022-10-07T08:14:39.305Z,8.85
2022-10-07T08:17:07.476Z,9.27
2022-10-07T08:19:35.209Z,9.68
2022-10-07T08:22:04.465Z,11.57
2022-10-07T08:24:32.635Z,8.05
2022-10-07T08:26:59.927Z,8.45
2022-10-07T08:29:27.180Z,7.80
2022-10-07T08:31:54.659Z,7.97
2022-10-07T08:34:21.852Z,7.47
2022-10-07T08:36:50.743Z,8.35
2022-10-07T08:39:18.162Z,7.15
2022-10-07T08:41:51.251Z,6.85
2022-10-07T08:44:26.408Z,7.15
2022-10-07T08:47:16.958Z,6.90
2022-10-07T08:49:54.053Z,7.13
2022-10-07T08:52:34.717Z,6.88
2022-10-07T08:55:02.612Z,6.97
2022-10-07T08:57:45.761Z,6.47
2022-10-07T09:00:19.100Z,8.38
2022-10-07T09:03:02.905Z,6.10
2022-10-07T09:05:34.668Z,6.72
2022-10-07T09:08:10.024Z,6.80
2022-10-07T09:10:42.795Z,7.32
2022-10-07T09:13:24.880Z,15.80
2022-10-07T09:16:06.929Z,6.35
2022-10-07T09:18:45.539Z,7.15
2022-10-07T09:21:19.130Z,6.55
2022-10-07T09:23:47.492Z,5.97
2022-10-07T09:26:16.955Z,6.55
2022-10-07T09:28:44.220Z,6.32
2022-10-07T09:31:15.201Z,7.13
2022-10-07T09:33:45.990Z,6.72
2022-10-07T09:36:20.186Z,5.82
2022-10-07T09:38:50.378Z,5.78
2022-10-07T09:41:32.433Z,7.07
2022-10-07T09:44:07.163Z,5.28
2022-10-07T09:46:54.115Z,6.68
2022-10-07T09:49:27.646Z,6.95
2022-10-07T09:52:28.629Z,7.68
2022-10-07T09:55:17.460Z,5.90
2022-10-07T09:58:01.368Z,12.13
2022-10-07T10:00:30.627Z,8.63
2022-10-07T10:03:05.972Z,5.53
2022-10-07T10:05:39.903Z,6.13
2022-10-07T10:08:18.954Z,7.22
2022-10-07T10:10:53.489Z,5.80
2022-10-07T10:13:37.309Z,4.85
2022-10-07T10:16:26.876Z,5.38
2022-10-07T10:18:56.503Z,5.53
2022-10-07T10:21:30.015Z,5.50
2022-10-07T10:24:06.166Z,5.82
2022-10-07T10:26:48.638Z,5.65
2022-10-07T10:29:43.890Z,6.28
2022-10-07T10:32:57.413Z,5.78
2022-10-07T10:35:27.813Z,6.22
2022-10-07T10:38:04.158Z,6.50
2022-10-07T10:40:45.493Z,6.88
2022-10-07T10:43:24.895Z,6.07
2022-10-07T10:46:27.169Z,4.72
2022-10-07T10:49:10.901Z,4.78
2022-10-07T10:52:11.121Z,4.65
2022-10-07T10:54:50.739Z,5.43
2022-10-07T10:57:33.429Z,4.20
2022-10-07T11:00:20.836Z,5.35
2022-10-07T11:03:08.633Z,3.97
2022-10-07T11:05:39.529Z,4.30
2022-10-07T11:08:37.086Z,4.25
2022-10-07T11:11:09.567Z,4.30
2022-10-07T11:13:49.251Z,3.75
2022-10-07T11:16:31.223Z,4.25
2022-10-07T11:19:04.904Z,3.67
2022-10-07T11:21:38.309Z,3.45
2022-10-07T11:24:40.857Z,3.80
2022-10-07T11:27:26.004Z,3.35
2022-10-07T11:30:08.516Z,3.83
2022-10-07T11:32:38.898Z,4.88
2022-10-07T11:35:34.123Z,3.50
2022-10-07T11:38:10.343Z,2.65
2022-10-07T11:40:52.245Z,2.92
2022-10-07T11:43:41.047Z,3.70
2022-10-07T11:46:11.682Z,3.50
2022-10-07T11:48:53.408Z,3.38
2022-10-07T11:51:38.929Z,3.30
2022-10-07T11:54:13.963Z,2.88
2022-10-07T11:56:49.858Z,3.53
2022-10-07T11:59:48.282Z,2.92
2022-10-07T12:02:38.461Z,3.33
2022-10-07T12:05:08.255Z,3.47
2022-10-07T12:07:37.586Z,3.15
2022-10-07T12:10:22.174Z,3.22
2022-10-07T12:12:59.157Z,2.42
2022-10-07T12:15:29.516Z,3.70
2022-10-07T12:18:19.869Z,2.35
2022-10-07T12:20:50.424Z,2.20
2022-10-07T12:23:26.598Z,2.53
2022-10-07T12:26:03.090Z,2.58
2022-10-07T12:28:34.786Z,2.45
2022-10-07T12:31:15.334Z,2.35
2022-10-07T12:33:46.021Z,2.33
2022-10-07T12:36:19.346Z,2.80
2022-10-07T12:39:09.718Z,2.72
2022-10-07T12:41:39.943Z,2.30
2022-10-07T12:44:44.056Z,2.97
2022-10-07T12:47:21.575Z,5.82
2022-10-07T12:49:58.830Z,9.80
2022-10-07T12:52:53.173Z,3.03
2022-10-07T12:55:30.585Z,3.17
2022-10-07T12:58:34.704Z,3.20
2022-10-07T13:01:09.699Z,2.75
2022-10-07T13:03:47.391Z,2.60
2022-10-07T13:06:52.377Z,2.38
2022-10-07T13:09:38.289Z,3.00
2022-10-07T13:12:09.827Z,3.97
2022-10-07T13:15:18.414Z,3.28
2022-10-07T13:17:56.769Z,2.50
2022-10-07T13:20:45.636Z,2.50
2022-10-07T13:23:24.539Z,2.40
2022-10-07T13:25:56.378Z,2.22
2022-10-07T13:28:27.455Z,2.60
2022-10-07T13:30:54.780Z,2.35
2022-10-07T13:33:23.939Z,3.38
2022-10-07T13:35:52.887Z,2.67
2022-10-07T13:38:25.970Z,2.40
2022-10-07T13:41:04.908Z,3.17
2022-10-07T13:43:34.650Z,3.22
2022-10-07T13:46:05.394Z,2.45
2022-10-07T13:48:40.656Z,2.72
2022-10-07T13:51:20.476Z,2.65
2022-10-07T13:53:55.548Z,3.53
2022-10-07T13:56:42.384Z,2.95
2022-10-07T13:59:18.263Z,2.70
2022-10-07T14:01:58.347Z,3.65
2022-10-07T14:04:34.976Z,2.22
2022-10-07T14:07:21.633Z,2.40
2022-10-07T14:10:10.414Z,2.78
2022-10-07T14:12:49.676Z,3.45
2022-10-07T14:15:24.441Z,2.10
2022-10-07T14:18:06.650Z,2.90
2022-10-07T14:20:39.383Z,4.25
2022-10-07T14:23:28.686Z,3.97
2022-10-07T14:26:00.158Z,2.72
2022-10-07T14:28:32.504Z,2.78
2022-10-07T14:31:27.694Z,3.58
2022-10-07T14:34:22.960Z,2.77
2022-10-07T14:37:08.829Z,2.90
2022-10-07T14:39:51.268Z,3.63
2022-10-07T14:42:25.632Z,2.80
2022-10-07T14:44:56.155Z,2.95
2022-10-07T14:47:28.562Z,4.20
2022-10-07T14:50:06.118Z,3.13
2022-10-07T14:52:44.501Z,3.00
2022-10-07T14:55:18.911Z,3.35
2022-10-07T14:57:47.956Z,2.95
2022-10-07T15:00:21.499Z,3.63
2022-10-07T15:02:53.420Z,4.35
2022-10-07T15:05:22.856Z,4.00
2022-10-07T15:07:51.214Z,3.72
2022-10-07T15:10:23.869Z,4.50
2022-10-07T15:12:51.533Z,3.80
2022-10-07T15:15:19.536Z,5.28
2022-10-07T15:17:48.132Z,3.90
2022-10-07T15:20:16.461Z,4.35
2022-10-07T15:22:45.394Z,4.72
2022-10-07T15:25:15.526Z,5.15
2022-10-07T15:27:43.251Z,4.55
2022-10-07T15:30:11.231Z,4.75
2022-10-07T15:32:41.685Z,5.47
2022-10-07T15:35:09.554Z,5.03
2022-10-07T15:37:36.869Z,6.55
2022-10-07T15:40:06.891Z,6.32
2022-10-07T15:42:34.405Z,7.85
2022-10-07T15:45:04.769Z,8.57
2022-10-07T15:47:33.584Z,8.98
2022-10-07T15:50:01.096Z,9.35
2022-10-07T15:52:29.108Z,9.77
2022-10-07T15:54:56.967Z,9.00
2022-10-07T15:57:24.638Z,8.88
2022-10-07T15:59:54.912Z,8.80
2022-10-07T16:02:23.858Z,10.32
2022-10-07T16:04:52.533Z,10.82
2022-10-07T16:07:19.824Z,10.48
2022-10-07T16:09:56.278Z,9.90
2022-10-07T16:12:23.504Z,10.18
2022-10-07T16:14:52.299Z,8.65
2022-10-07T16:17:19.514Z,9.13
2022-10-07T16:19:48.103Z,8.40
2022-10-07T16:22:16.722Z,8.55
2022-10-07T16:24:43.942Z,9.38
2022-10-07T16:27:11.343Z,8.90
2022-10-07T16:29:57.184Z,9.48
2022-10-07T16:32:24.576Z,9.57
2022-10-07T16:34:52.130Z,10.55
2022-10-07T16:37:19.404Z,11.52
2022-10-07T16:39:47.138Z,16.90
2022-10-07T16:42:14.839Z,21.80
2022-10-07T16:44:42.116Z,20.42
2022-10-07T16:47:09.438Z,22.85
2022-10-07T16:49:37.126Z,21.42
2022-10-07T16:52:04.644Z,21.45
2022-10-07T16:54:35.484Z,21.35
2022-10-07T16:57:02.925Z,21.38
2022-10-07T16:59:30.973Z,21.25
2022-10-07T17:02:00.364Z,16.33
2022-10-07T17:04:27.853Z,19.70
2022-10-07T17:06:55.476Z,20.10
2022-10-07T17:09:24.986Z,20.15
2022-10-07T17:11:52.788Z,19.83
2022-10-07T17:14:23.134Z,19.30
2022-10-07T17:16:53.358Z,16.73
2022-10-07T17:19:24.417Z,14.98
2022-10-07T17:21:53.205Z,16.98
2022-10-07T17:24:22.760Z,18.70
2022-10-07T17:26:50.816Z,18.33
2022-10-07T17:29:19.607Z,18.98
2022-10-07T17:31:50.773Z,17.55
2022-10-07T17:34:20.647Z,11.55
2022-10-07T17:36:49.024Z,11.25
2022-10-07T17:39:17.476Z,9.73
2022-10-07T17:41:45.165Z,12.63
2022-10-07T17:44:13.473Z,13.00
2022-10-07T17:46:41.369Z,11.70
2022-10-07T17:49:13.581Z,12.80
2022-10-07T17:51:43.376Z,13.05
2022-10-07T17:54:13.648Z,21.42
2022-10-07T17:56:41.366Z,20.70
2022-10-07T17:59:08.617Z,19.90
2022-10-07T18:01:36.633Z,19.25
2022-10-07T18:04:06.362Z,20.92
2022-10-07T18:06:36.174Z,21.88
2022-10-07T18:09:08.387Z,16.75
2022-10-07T18:11:54.736Z,9.85
2022-10-07T18:14:41.748Z,9.93
2022-10-07T18:17:10.762Z,12.82
2022-10-07T18:19:39.853Z,24.23
2022-10-07T18:22:07.834Z,19.73
2022-10-07T18:24:35.482Z,19.77
2022-10-07T18:27:05.297Z,18.30
2022-10-07T18:29:37.670Z,19.88
2022-10-07T18:32:08.394Z,20.70
2022-10-07T18:34:35.892Z,21.35
2022-10-07T18:37:03.103Z,20.45
2022-10-07T18:39:30.650Z,21.90
2022-10-07T18:41:58.486Z,21.08
2022-10-07T18:44:26.719Z,54.10
2022-10-07T18:46:54.466Z,65.00
2022-10-07T18:49:21.889Z,91.97
2022-10-07T18:51:51.192Z,98.95
2022-10-07T18:54:19.602Z,106.57
2022-10-07T18:56:48.484Z,66.20
2022-10-07T18:59:17.398Z,66.45
2022-10-07T19:01:50.622Z,63.55
2022-10-07T19:04:19.772Z,57.08
2022-10-07T19:06:47.486Z,40.17
2022-10-07T19:09:20.871Z,40.72
2022-10-07T19:11:48.983Z,31.35
2022-10-07T19:14:16.546Z,28.67
2022-10-07T19:16:51.938Z,27.67
2022-10-07T19:19:24.464Z,29.13
2022-10-07T19:21:55.025Z,28.52
2022-10-07T19:24:46.070Z,28.50
2022-10-07T19:27:14.496Z,28.02
2022-10-07T19:29:42.147Z,28.45
2022-10-07T19:32:09.722Z,30.23
2022-10-07T19:34:37.431Z,31.60
2022-10-07T19:37:05.328Z,38.55
2022-10-07T19:39:32.615Z,37.55
2022-10-07T19:42:00.288Z,38.60
2022-10-07T19:44:27.739Z,40.53
2022-10-07T19:46:55.479Z,43.78
2022-10-07T19:49:23.052Z,56.92
2022-10-07T19:51:50.369Z,57.35
2022-10-07T19:54:18.005Z,56.28
2022-10-07T19:56:45.532Z,59.30
2022-10-07T19:59:14.502Z,81.35
2022-10-07T20:01:44.424Z,77.90
2022-10-07T20:04:15.108Z,71.43
2022-10-07T20:06:44.012Z,70.80
2022-10-07T20:09:13.736Z,64.38
2022-10-07T20:11:41.505Z,57.05
2022-10-07T20:14:10.188Z,45.03
2022-10-07T20:16:38.400Z,46.13
2022-10-07T20:19:15.651Z,46.90
2022-10-07T20:21:43.627Z,43.85
2022-10-07T20:24:16.512Z,39.60
2022-10-07T20:26:45.267Z,35.75
2022-10-07T20:29:16.271Z,38.63
2022-10-07T20:31:44.531Z,34.65
2022-10-07T20:34:19.045Z,32.60
2022-10-07T20:36:46.775Z,32.30
2022-10-07T20:39:36.356Z,38.78
2022-10-07T20:42:22.313Z,45.55
2022-10-07T20:44:51.066Z,73.90
2022-10-07T20:47:19.556Z,75.95
2022-10-07T20:49:48.855Z,74.57
2022-10-07T20:52:20.029Z,71.18
2022-10-07T20:54:48.146Z,71.57
2022-10-07T20:57:19.915Z,60.53
2022-10-07T20:59:47.695Z,70.47
2022-10-07T21:02:17.709Z,75.03
2022-10-07T21:04:47.988Z,61.92
2022-10-07T21:07:16.798Z,51.40
2022-10-07T21:09:44.507Z,45.42
2022-10-07T21:12:14.536Z,47.67
2022-10-07T21:14:48.063Z,46.05
2022-10-07T21:17:16.115Z,46.85
2022-10-07T21:19:43.556Z,48.08
2022-10-07T21:22:10.888Z,51.70
2022-10-07T21:24:38.736Z,48.33
2022-10-07T21:27:08.255Z,37.03
2022-10-07T21:29:40.400Z,32.85
2022-10-07T21:32:10.655Z,30.65
2022-10-07T21:34:38.887Z,30.25
2022-10-07T21:37:06.436Z,39.88
2022-10-07T21:39:34.097Z,38.10
2022-10-07T21:42:02.099Z,60.90
2022-10-07T21:44:29.657Z,59.80
2022-10-07T21:47:00.091Z,52.75
2022-10-07T21:49:27.558Z,57.70
2022-10-07T21:51:54.915Z,57.45
2022-10-07T21:54:22.566Z,56.92
2022-10-07T21:56:50.285Z,46.85
2022-10-07T21:59:17.806Z,37.50
2022-10-07T22:01:45.486Z,37.55
2022-10-07T22:04:17.290Z,34.70
2022-10-07T22:07:04.128Z,34.70
2022-10-07T22:09:32.329Z,31.75
2022-10-07T22:12:00.477Z,30.00
2022-10-07T22:14:28.125Z,28.60
2022-10-07T22:16:55.476Z,25.60
2022-10-07T22:19:23.438Z,24.13
2022-10-07T22:21:51.197Z,27.13
2022-10-07T22:24:18.620Z,29.02
2022-10-07T22:26:47.647Z,30.58
2022-10-07T22:29:17.354Z,30.52
2022-10-07T22:31:45.516Z,31.63
2022-10-07T22:34:33.116Z,32.47
2022-10-07T22:37:00.988Z,32.10
2022-10-07T22:39:31.596Z,31.67
2022-10-07T22:41:59.505Z,33.03
2022-10-07T22:44:28.425Z,32.47
2022-10-07T22:46:56.906Z,37.20
2022-10-07T22:49:28.765Z,39.83
2022-10-07T22:51:59.899Z,42.17
2022-10-07T22:54:27.907Z,37.83
2022-10-07T22:56:55.254Z,37.28
2022-10-07T22:59:22.565Z,37.33
2022-10-07T23:01:50.156Z,40.28
2022-10-07T23:04:20.407Z,36.42
2022-10-07T23:06:47.915Z,38.15
2022-10-07T23:09:15.508Z,42.53
2022-10-07T23:11:42.827Z,34.13
2022-10-07T23:14:10.226Z,34.80
2022-10-07T23:16:37.745Z,30.08
2022-10-07T23:19:05.028Z,30.13
2022-10-07T23:21:35.886Z,27.42
2022-10-07T23:24:07.795Z,30.55
2022-10-07T23:26:36.528Z,26.88
2022-10-07T23:29:04.458Z,27.50
2022-10-07T23:31:33.202Z,38.83
2022-10-07T23:34:03.194Z,38.38
2022-10-07T23:36:30.587Z,35.47
2022-10-07T23:38:59.971Z,30.23
2022-10-07T23:41:30.089Z,30.90
2022-10-07T23:43:59.283Z,32.97
2022-10-07T23:46:28.270Z,32.13
2022-10-07T23:48:56.445Z,34.65
2022-10-07T23:51:26.229Z,35.88
2022-10-07T23:53:56.727Z,37.08
2022-10-07T23:56:24.139Z,36.90
2022-10-07T23:58:51.290Z,36.00
